createdAt,value
2022-08-09T00:01:55.267Z,2.38
2022-08-09T00:04:34.103Z,2.35
2022-08-09T00:07:07.704Z,2.20
2022-08-09T00:09:39.867Z,2.03
2022-08-09T00:12:15.526Z,2.60
2022-08-09T00:14:54.440Z,2.40
2022-08-09T00:18:10.223Z,3.00
2022-08-09T00:20:14.053Z,2.42
2022-08-09T00:22:44.842Z,2.40
2022-08-09T00:25:23.410Z,2.25
2022-08-09T00:28:01.106Z,2.90
2022-08-09T00:30:35.220Z,2.78
2022-08-09T00:33:03.858Z,2.78
2022-08-09T00:35:42.716Z,3.05
2022-08-09T00:38:13.122Z,2.90
2022-08-09T00:40:52.865Z,2.50
2022-08-09T00:44:11.527Z,2.67
2022-08-09T00:46:11.351Z,2.60
2022-08-09T00:48:56.897Z,3.30
2022-08-09T00:51:28.298Z,2.40
2022-08-09T00:54:03.044Z,2.45
2022-08-09T00:56:31.130Z,2.45
2022-08-09T00:58:59.386Z,2.47
2022-08-09T01:01:44.657Z,2.70
2022-08-09T01:05:14.138Z,2.17
2022-08-09T01:08:16.234Z,2.20
2022-08-09T01:11:15.023Z,2.88
2022-08-09T01:13:59.898Z,2.25
2022-08-09T01:16:39.549Z,2.30
2022-08-09T01:19:42.599Z,2.58
2022-08-09T01:23:01.550Z,1.92
2022-08-09T01:26:16.443Z,2.38
2022-08-09T01:28:50.657Z,1.95
2022-08-09T01:32:30.624Z,2.30
2022-08-09T01:34:20.273Z,1.77
2022-08-09T01:36:50.462Z,2.15
2022-08-09T01:39:23.305Z,1.90
2022-08-09T01:42:00.550Z,1.88
2022-08-09T01:44:32.020Z,1.83
2022-08-09T01:47:02.999Z,2.25
2022-08-09T01:49:39.251Z,2.03
2022-08-09T01:52:16.386Z,2.15
2022-08-09T01:54:54.098Z,1.90
2022-08-09T01:57:45.830Z,1.88
2022-08-09T02:03:04.980Z,2.05
2022-08-09T02:06:04.182Z,2.03
2022-08-09T02:08:38.550Z,1.87
2022-08-09T02:11:17.033Z,2.00
2022-08-09T02:14:02.172Z,1.80
2022-08-09T02:16:59.092Z,1.80
2022-08-09T02:19:38.737Z,2.08
2022-08-09T02:22:31.559Z,1.95
2022-08-09T02:27:57.380Z,1.80
2022-08-09T02:30:31.984Z,2.17
2022-08-09T02:33:01.326Z,1.85
2022-08-09T02:36:03.247Z,1.73
2022-08-09T02:38:28.930Z,2.03
2022-08-09T02:41:06.593Z,2.00
2022-08-09T02:43:42.447Z,2.10
2022-08-09T02:46:27.927Z,1.98
2022-08-09T02:49:03.083Z,1.83
2022-08-09T02:51:40.479Z,1.88
2022-08-09T02:54:14.353Z,1.83
2022-08-09T02:56:51.243Z,2.05
2022-08-09T02:59:26.203Z,2.05
2022-08-09T03:02:12.316Z,1.98
2022-08-09T03:04:50.651Z,1.73
2022-08-09T03:07:20.410Z,1.85
2022-08-09T03:09:54.474Z,2.25
2022-08-09T03:12:29.022Z,2.13
2022-08-09T03:14:58.429Z,1.83
2022-08-09T03:17:28.390Z,2.10
2022-08-09T03:20:05.345Z,1.88
2022-08-09T03:22:41.971Z,2.22
2022-08-09T03:25:26.955Z,1.98
2022-08-09T03:28:04.401Z,2.17
2022-08-09T03:30:40.305Z,2.47
2022-08-09T03:33:18.690Z,2.28
2022-08-09T03:36:13.061Z,2.13
2022-08-09T03:38:43.451Z,2.22
2022-08-09T03:41:16.430Z,2.65
2022-08-09T03:43:51.693Z,2.00
2022-08-09T03:46:36.994Z,2.13
2022-08-09T03:49:08.174Z,2.30
2022-08-09T03:51:58.324Z,2.17
2022-08-09T03:54:34.947Z,1.77
2022-08-09T03:57:18.777Z,3.03
2022-08-09T03:59:55.974Z,2.30
2022-08-09T04:02:31.176Z,1.85
2022-08-09T04:05:06.677Z,1.70
2022-08-09T04:07:53.051Z,2.17
2022-08-09T04:10:29.239Z,2.08
2022-08-09T04:13:03.982Z,1.50
2022-08-09T04:16:18.234Z,2.28
2022-08-09T04:18:21.591Z,2.40
2022-08-09T04:20:51.253Z,1.75
2022-08-09T04:23:24.271Z,1.77
2022-08-09T04:25:55.810Z,2.15
2022-08-09T04:28:33.688Z,2.03
2022-08-09T04:31:09.946Z,2.03
2022-08-09T04:33:47.695Z,2.10
2022-08-09T04:36:28.759Z,2.10
2022-08-09T04:39:00.869Z,2.10
2022-08-09T04:41:33.220Z,1.85
2022-08-09T04:44:06.289Z,1.80
2022-08-09T04:46:58.932Z,1.90
2022-08-09T04:49:53.709Z,1.80
2022-08-09T04:52:27.638Z,1.48
2022-08-09T04:55:02.404Z,1.55
2022-08-09T04:57:59.432Z,1.63
2022-08-09T05:00:21.099Z,1.48
2022-08-09T05:02:52.727Z,1.60
2022-08-09T05:05:32.304Z,1.50
2022-08-09T05:08:14.048Z,1.50
2022-08-09T05:10:43.963Z,1.60
2022-08-09T05:13:14.384Z,1.77
2022-08-09T05:15:48.270Z,1.60
2022-08-09T05:18:50.919Z,1.73
2022-08-09T05:21:23.298Z,1.40
2022-08-09T05:24:01.193Z,1.42
2022-08-09T05:26:45.624Z,1.20
2022-08-09T05:29:24.183Z,1.90
2022-08-09T05:31:58.391Z,1.60
2022-08-09T05:34:31.068Z,1.33
2022-08-09T05:37:11.213Z,1.52
2022-08-09T05:39:43.761Z,1.55
2022-08-09T05:42:17.496Z,1.40
2022-08-09T05:44:54.297Z,1.70
2022-08-09T05:47:27.322Z,1.60
2022-08-09T05:50:25.157Z,1.23
2022-08-09T05:52:53.440Z,1.73
2022-08-09T05:55:24.102Z,1.55
2022-08-09T05:57:56.627Z,1.38
2022-08-09T06:00:32.943Z,1.63
2022-08-09T06:03:03.711Z,1.50
2022-08-09T06:08:24.200Z,1.40
2022-08-09T06:10:55.854Z,1.63
2022-08-09T06:13:25.354Z,1.45
2022-08-09T06:15:56.713Z,1.55
2022-08-09T06:18:25.897Z,1.75
2022-08-09T06:20:58.640Z,1.40
2022-08-09T06:23:58.820Z,1.27
2022-08-09T06:26:20.560Z,1.50
2022-08-09T06:29:00.770Z,1.38
2022-08-09T06:31:39.862Z,1.60
2022-08-09T06:34:23.587Z,1.02
2022-08-09T06:36:59.597Z,1.10
2022-08-09T06:39:49.105Z,1.60
2022-08-09T06:42:30.320Z,1.30
2022-08-09T06:45:00.296Z,1.20
2022-08-09T06:47:39.706Z,1.42
2022-08-09T06:50:18.972Z,2.25
2022-08-09T06:52:48.753Z,1.30
2022-08-09T06:55:22.425Z,1.67
2022-08-09T06:58:01.819Z,1.65
2022-08-09T07:00:49.342Z,1.20
2022-08-09T07:03:27.988Z,1.40
2022-08-09T07:06:04.114Z,1.33
2022-08-09T07:08:37.385Z,1.45
2022-08-09T07:11:12.640Z,1.35
2022-08-09T07:14:04.145Z,1.27
2022-08-09T07:16:41.121Z,1.40
2022-08-09T07:19:15.070Z,1.00
2022-08-09T07:21:50.108Z,1.27
2022-08-09T07:24:32.143Z,1.30
2022-08-09T07:27:27.128Z,1.10
2022-08-09T07:30:02.283Z,1.10
2022-08-09T07:32:32.303Z,1.10
2022-08-09T07:35:10.569Z,1.15
2022-08-09T07:37:44.433Z,1.10
2022-08-09T07:40:18.809Z,1.05
2022-08-09T07:43:00.258Z,1.23
2022-08-09T07:45:40.416Z,1.13
2022-08-09T07:48:28.342Z,0.82
2022-08-09T07:51:10.074Z,1.00
2022-08-09T07:54:04.916Z,1.05
2022-08-09T07:56:39.001Z,0.93
2022-08-09T07:59:34.063Z,1.02
2022-08-09T08:02:16.648Z,0.90
2022-08-09T08:04:49.338Z,0.90
2022-08-09T08:08:45.159Z,1.70
2022-08-09T08:10:11.451Z,0.90
2022-08-09T08:12:45.138Z,1.40
2022-08-09T08:15:23.273Z,0.90
2022-08-09T08:17:58.691Z,1.00
2022-08-09T08:20:32.355Z,1.40
2022-08-09T08:23:16.294Z,1.02
2022-08-09T08:25:48.528Z,1.00
2022-08-09T08:28:35.953Z,1.13
2022-08-09T08:31:10.621Z,1.00
2022-08-09T08:33:52.630Z,1.10
2022-08-09T08:36:28.790Z,1.27
2022-08-09T08:38:58.360Z,0.80
2022-08-09T08:41:30.812Z,1.00
2022-08-09T08:44:16.774Z,1.10
2022-08-09T08:46:59.974Z,0.80
2022-08-09T08:49:47.210Z,0.82
2022-08-09T08:52:53.374Z,0.80
2022-08-09T08:55:10.607Z,0.85
2022-08-09T08:57:39.018Z,0.70
2022-08-09T09:00:20.791Z,1.00
2022-08-09T09:03:08.250Z,0.70
2022-08-09T09:06:00.347Z,0.80
2022-08-09T09:08:40.336Z,1.00
2022-08-09T09:11:13.877Z,1.00
2022-08-09T09:13:57.063Z,0.88
2022-08-09T09:16:34.122Z,0.80
2022-08-09T09:19:37.389Z,0.90
2022-08-09T09:22:05.522Z,0.90
2022-08-09T09:24:43.276Z,0.98
2022-08-09T09:28:03.910Z,1.17
2022-08-09T09:30:32.901Z,1.05
2022-08-09T09:33:15.366Z,1.02
2022-08-09T09:36:01.703Z,1.10
2022-08-09T09:38:46.644Z,0.88
2022-08-09T09:41:32.942Z,1.00
2022-08-09T09:44:12.186Z,0.90
2022-08-09T09:46:51.757Z,1.20
2022-08-09T09:50:06.789Z,0.70
2022-08-09T09:52:33.632Z,0.90
2022-08-09T09:55:16.027Z,0.93
2022-08-09T10:00:59.439Z,0.90
2022-08-09T10:03:57.801Z,0.98
2022-08-09T10:06:42.868Z,0.83
2022-08-09T10:09:22.504Z,0.98
2022-08-09T10:12:14.666Z,0.97
2022-08-09T10:14:51.957Z,0.98
2022-08-09T10:17:54.920Z,1.30
2022-08-09T10:20:26.962Z,1.00
2022-08-09T10:23:21.078Z,1.00
2022-08-09T10:26:07.260Z,0.80
2022-08-09T10:28:48.654Z,0.93
2022-08-09T10:34:33.073Z,1.00
2022-08-09T10:37:00.488Z,1.00
2022-08-09T10:39:30.171Z,1.10
2022-08-09T10:42:10.016Z,1.13
2022-08-09T10:44:39.972Z,1.20
2022-08-09T10:48:26.033Z,1.20
2022-08-09T10:51:15.586Z,1.25
2022-08-09T10:54:13.970Z,1.17
2022-08-09T10:56:43.411Z,0.90
2022-08-09T10:59:30.952Z,1.20
2022-08-09T11:03:15.571Z,1.20
2022-08-09T11:05:25.312Z,1.17
2022-08-09T11:08:18.686Z,1.15
2022-08-09T11:11:00.751Z,1.00
2022-08-09T11:13:50.174Z,1.23
2022-08-09T11:16:39.294Z,1.20
2022-08-09T11:19:10.946Z,1.00
2022-08-09T11:22:05.239Z,1.30
2022-08-09T11:25:19.039Z,1.10
2022-08-09T11:28:08.182Z,1.20
2022-08-09T11:30:48.009Z,1.00
2022-08-09T11:33:19.867Z,1.20
2022-08-09T11:35:59.760Z,0.90
2022-08-09T11:38:34.154Z,1.30
2022-08-09T11:41:38.549Z,1.30
2022-08-09T11:44:09.577Z,1.52
2022-08-09T11:47:00.754Z,1.05
2022-08-09T11:50:55.584Z,1.15
2022-08-09T11:53:28.248Z,1.00
2022-08-09T11:56:02.825Z,1.02
2022-08-09T11:58:33.699Z,1.35
2022-08-09T12:01:15.729Z,1.15
2022-08-09T12:04:06.626Z,1.00
2022-08-09T12:06:39.620Z,1.05
2022-08-09T12:09:28.153Z,0.93
2022-08-09T12:12:12.290Z,0.90
2022-08-09T12:15:04.002Z,1.13
2022-08-09T12:17:43.689Z,0.90
2022-08-09T12:20:25.728Z,1.10
2022-08-09T12:23:01.429Z,1.10
2022-08-09T12:25:37.447Z,1.02
2022-08-09T12:29:13.271Z,1.10
2022-08-09T12:31:30.843Z,1.13
2022-08-09T12:34:05.499Z,1.08
2022-08-09T12:36:36.238Z,1.00
2022-08-09T12:41:42.212Z,0.80
2022-08-09T12:44:13.281Z,0.90
2022-08-09T12:46:48.655Z,1.00
2022-08-09T12:49:18.653Z,1.00
2022-08-09T12:52:02.416Z,1.00
2022-08-09T12:56:10.631Z,1.13
2022-08-09T12:57:47.224Z,0.90
2022-08-09T13:00:25.124Z,1.15
2022-08-09T13:03:00.633Z,1.27
2022-08-09T13:06:14.746Z,1.15
2022-08-09T13:08:39.821Z,0.90
2022-08-09T13:11:22.621Z,1.70
2022-08-09T13:14:41.025Z,1.10
2022-08-09T13:16:50.286Z,1.30
2022-08-09T13:20:08.621Z,1.00
2022-08-09T13:22:37.551Z,0.90
2022-08-09T13:25:15.110Z,1.17
2022-08-09T13:27:48.814Z,1.30
2022-08-09T13:30:50.004Z,0.98
2022-08-09T13:33:24.385Z,1.08
2022-08-09T13:36:38.602Z,0.93
2022-08-09T13:38:54.938Z,1.38
2022-08-09T13:41:58.539Z,1.20
2022-08-09T13:44:17.102Z,1.00
2022-08-09T13:47:29.233Z,0.98
2022-08-09T13:49:39.933Z,0.90
2022-08-09T13:52:25.052Z,1.10
2022-08-09T13:54:59.008Z,0.85
2022-08-09T13:57:36.248Z,1.25
2022-08-09T14:00:15.770Z,1.08
2022-08-09T14:03:03.189Z,1.65
2022-08-09T14:05:59.585Z,1.20
2022-08-09T14:08:24.056Z,1.38
2022-08-09T14:14:16.011Z,1.35
2022-08-09T14:16:17.283Z,1.30
2022-08-09T14:18:51.864Z,1.38
2022-08-09T14:21:23.459Z,1.10
2022-08-09T14:23:57.054Z,1.08
2022-08-09T14:26:33.770Z,1.73
2022-08-09T14:29:08.196Z,1.55
2022-08-09T14:31:54.754Z,1.40
2022-08-09T14:34:32.392Z,1.27
2022-08-09T14:37:06.741Z,1.10
2022-08-09T14:39:47.869Z,1.48
2022-08-09T14:42:28.886Z,1.23
2022-08-09T14:46:40.361Z,1.20
2022-08-09T14:47:59.124Z,1.08
2022-08-09T14:50:31.285Z,1.13
2022-08-09T14:53:13.899Z,1.00
2022-08-09T14:55:50.217Z,1.35
2022-08-09T14:58:19.276Z,1.30
2022-08-09T15:00:48.432Z,1.10
2022-08-09T15:03:20.925Z,1.40
2022-08-09T15:05:52.613Z,1.42
2022-08-09T15:08:25.035Z,1.27
2022-08-09T15:11:00.817Z,2.42
2022-08-09T15:13:48.479Z,1.38
2022-08-09T15:16:18.781Z,1.30
2022-08-09T15:18:48.980Z,1.27
2022-08-09T15:21:56.349Z,1.50
2022-08-09T15:24:12.603Z,1.27
2022-08-09T15:26:45.384Z,1.33
2022-08-09T15:30:56.212Z,1.60
2022-08-09T15:32:04.686Z,1.60
2022-08-09T15:34:35.352Z,1.38
2022-08-09T15:37:37.702Z,1.50
2022-08-09T15:40:19.844Z,1.50
2022-08-09T15:42:51.045Z,1.20
2022-08-09T15:45:29.320Z,1.45
2022-08-09T15:48:06.666Z,1.42
2022-08-09T15:50:46.834Z,1.70
2022-08-09T15:53:17.947Z,1.52
2022-08-09T15:56:29.116Z,1.48
2022-08-09T16:01:24.306Z,1.55
2022-08-09T16:03:52.433Z,1.48
2022-08-09T16:06:32.580Z,1.75
2022-08-09T16:09:05.521Z,1.77
2022-08-09T16:11:34.176Z,1.67
2022-08-09T16:14:09.032Z,1.40
2022-08-09T16:16:45.820Z,1.73
2022-08-09T16:19:16.783Z,1.38
2022-08-09T16:21:51.943Z,1.45
2022-08-09T16:24:33.204Z,1.80
2022-08-09T16:27:06.492Z,1.73
2022-08-09T16:29:49.642Z,1.85
2022-08-09T16:32:34.130Z,1.63
2022-08-09T16:35:08.312Z,1.50
2022-08-09T16:37:54.756Z,1.70
2022-08-09T16:40:40.427Z,1.73
2022-08-09T16:43:09.686Z,1.60
2022-08-09T16:45:43.848Z,1.60
2022-08-09T16:48:43.056Z,1.52
2022-08-09T16:51:08.486Z,1.80
2022-08-09T16:54:26.296Z,1.60
2022-08-09T16:56:50.214Z,1.73
2022-08-09T16:59:18.299Z,1.45
2022-08-09T17:01:51.026Z,1.33
2022-08-09T17:04:25.978Z,1.38
2022-08-09T17:08:40.684Z,1.67
2022-08-09T17:09:47.476Z,1.65
2022-08-09T17:12:16.380Z,1.50
2022-08-09T17:14:49.059Z,1.55
2022-08-09T17:17:26.847Z,1.75
2022-08-09T17:20:30.297Z,1.63
2022-08-09T17:22:52.308Z,1.58
2022-08-09T17:25:23.692Z,1.50
2022-08-09T17:27:55.137Z,1.40
2022-08-09T17:30:31.011Z,1.40
2022-08-09T17:33:05.644Z,1.48
2022-08-09T17:35:51.386Z,1.70
2022-08-09T17:38:32.230Z,1.58
2022-08-09T17:41:03.223Z,1.73
2022-08-09T17:43:38.882Z,1.63
2022-08-09T17:46:09.832Z,1.45
2022-08-09T17:48:52.157Z,1.50
2022-08-09T17:51:22.237Z,1.80
2022-08-09T17:53:55.794Z,1.50
2022-08-09T17:56:29.226Z,1.60
2022-08-09T17:59:11.363Z,1.83
2022-08-09T18:02:07.895Z,1.65
2022-08-09T18:04:29.965Z,1.50
2022-08-09T18:06:59.401Z,1.58
2022-08-09T18:09:40.107Z,1.38
2022-08-09T18:12:20.066Z,1.65
2022-08-09T18:14:54.956Z,1.60
2022-08-09T18:18:02.984Z,2.45
2022-08-09T18:20:57.268Z,1.90
2022-08-09T18:23:07.169Z,2.45
2022-08-09T18:25:52.743Z,2.17
2022-08-09T18:30:39.093Z,2.20
2022-08-09T18:31:24.959Z,2.42
2022-08-09T18:34:05.131Z,2.60
2022-08-09T18:36:34.808Z,2.67
2022-08-09T18:39:15.927Z,2.38
2022-08-09T18:41:53.327Z,2.08
2022-08-09T18:44:25.466Z,2.58
2022-08-09T18:47:07.365Z,2.15
2022-08-09T18:49:41.733Z,2.47
2022-08-09T18:52:28.412Z,2.45
2022-08-09T18:55:05.029Z,2.17
2022-08-09T18:57:42.630Z,3.17
2022-08-09T19:00:20.413Z,2.47
2022-08-09T19:02:50.976Z,2.35
2022-08-09T19:05:48.738Z,2.33
2022-08-09T19:08:14.203Z,2.42
2022-08-09T19:10:48.334Z,2.70
2022-08-09T19:13:23.587Z,3.00
2022-08-09T19:16:05.263Z,2.47
2022-08-09T19:18:38.527Z,2.53
2022-08-09T19:21:10.661Z,2.70
2022-08-09T19:24:37.355Z,2.38
2022-08-09T19:26:34.840Z,3.05
2022-08-09T19:29:15.766Z,2.42
2022-08-09T19:31:51.508Z,2.33
2022-08-09T19:34:22.698Z,3.13
2022-08-09T19:36:54.091Z,2.80
2022-08-09T19:39:43.413Z,2.70
2022-08-09T19:42:15.322Z,2.63
2022-08-09T19:44:51.249Z,2.42
2022-08-09T19:47:23.590Z,2.33
2022-08-09T19:50:08.754Z,2.70
2022-08-09T19:52:51.997Z,2.40
2022-08-09T19:55:25.571Z,2.40
2022-08-09T19:57:59.255Z,2.15
2022-08-09T20:00:27.747Z,2.70
2022-08-09T20:04:12.455Z,2.97
2022-08-09T20:05:46.951Z,2.35
2022-08-09T20:08:33.525Z,2.35
2022-08-09T20:11:04.993Z,2.20
2022-08-09T20:13:36.819Z,2.20
2022-08-09T20:16:34.580Z,2.25
2022-08-09T20:19:42.757Z,2.75
2022-08-09T20:21:56.391Z,2.50
2022-08-09T20:24:29.500Z,2.43
2022-08-09T20:27:05.737Z,2.25
2022-08-09T20:29:39.366Z,2.22
2022-08-09T20:32:28.967Z,2.43
2022-08-09T20:34:59.897Z,2.33
2022-08-09T20:40:27.511Z,2.13
2022-08-09T20:43:19.098Z,2.47
2022-08-09T20:46:01.201Z,2.30
2022-08-09T20:48:38.712Z,2.25
2022-08-09T20:51:07.590Z,2.58
2022-08-09T20:53:48.720Z,2.28
2022-08-09T20:56:20.707Z,2.08
2022-08-09T20:58:54.718Z,2.15
2022-08-09T21:01:34.444Z,2.05
2022-08-09T21:05:54.548Z,2.35
2022-08-09T21:07:11.498Z,2.40
2022-08-09T21:09:45.683Z,2.38
2022-08-09T21:15:23.347Z,2.20
2022-08-09T21:18:20.799Z,1.88
2022-08-09T21:20:53.864Z,1.88
2022-08-09T21:23:26.402Z,2.15
2022-08-09T21:26:12.567Z,2.20
2022-08-09T21:28:55.374Z,1.75
2022-08-09T21:31:24.731Z,2.17
2022-08-09T21:34:13.114Z,1.95
2022-08-09T21:36:55.406Z,2.30
2022-08-09T21:39:27.711Z,2.35
2022-08-09T21:42:04.353Z,1.95
2022-08-09T21:44:35.996Z,2.30
2022-08-09T21:47:09.372Z,2.20
2022-08-09T21:49:43.144Z,2.05
2022-08-09T21:52:20.951Z,2.28
2022-08-09T21:54:59.582Z,1.80
2022-08-09T21:57:59.458Z,2.20
2022-08-09T22:00:36.073Z,2.50
2022-08-09T22:03:19.382Z,2.00
2022-08-09T22:05:55.215Z,2.05
2022-08-09T22:08:26.199Z,2.20
2022-08-09T22:11:49.173Z,2.05
2022-08-09T22:13:44.807Z,2.20
2022-08-09T22:16:12.835Z,2.03
2022-08-09T22:18:54.356Z,2.40
2022-08-09T22:21:50.322Z,2.40
2022-08-09T22:24:21.111Z,1.98
2022-08-09T22:26:54.469Z,2.17
2022-08-09T22:29:28.420Z,2.65
2022-08-09T22:32:29.416Z,2.33
2022-08-09T22:35:06.042Z,2.00
2022-08-09T22:37:40.239Z,2.15
2022-08-09T22:40:19.990Z,2.60
2022-08-09T22:42:48.758Z,2.30
2022-08-09T22:48:15.225Z,2.42
2022-08-09T22:48:19.367Z,2.13
2022-08-09T22:50:53.830Z,2.33
2022-08-09T22:53:22.094Z,2.50
2022-08-09T22:56:29.998Z,2.50
2022-08-09T22:58:39.306Z,2.55
2022-08-09T23:01:08.481Z,2.38
2022-08-09T23:04:05.666Z,2.55
2022-08-09T23:06:35.073Z,2.15
2022-08-09T23:09:07.517Z,2.75
2022-08-09T23:11:35.731Z,2.42
2022-08-09T23:14:09.888Z,2.55
2022-08-09T23:16:45.892Z,2.50
2022-08-09T23:19:13.998Z,2.58
2022-08-09T23:21:42.117Z,2.45
2022-08-09T23:24:11.210Z,2.45
2022-08-09T23:26:40.563Z,3.03
2022-08-09T23:29:13.881Z,2.90
2022-08-09T23:31:42.532Z,2.33
2022-08-09T23:34:10.829Z,2.78
2022-08-09T23:36:39.128Z,2.28
2022-08-09T23:39:08.322Z,2.22
2022-08-09T23:41:36.427Z,2.58
2022-08-09T23:44:05.270Z,2.60
2022-08-09T23:46:33.894Z,2.80
2022-08-09T23:49:02.870Z,2.70
2022-08-09T23:51:31.392Z,2.67
2022-08-09T23:54:02.395Z,2.53
2022-08-09T23:56:52.145Z,2.30
